Time;durP1;ratioP1;P1;durP2;ratioP2;P2;SDS_P1;SDS_P2;PMS_P1;PMS_P2;Temp;Humidity;BMP_temperature;BMP_pressure;BME280_temperature;BME280_humidity;BME280_pressure;Samples;Min_cycle;Max_cycle;Signal;HPM_P1;HPM_P2
2022/04/05 03:00:39;;;;;;;1.00;1.00;;;5.20;74.60;;;;;;5989250;23;21294;31
2022/04/05 03:03:06;;;;;;;0.90;0.90;;;5.30;74.40;;;;;;4881650;29;20476;-81
2022/04/05 03:05:33;;;;;;;0.90;0.90;;;5.40;74.80;;;;;;4882278;29;20454;-81
2022/04/05 03:08:00;;;;;;;0.90;0.90;;;5.40;73.70;;;;;;4882424;29;20482;-80
2022/04/05 03:10:29;;;;;;;1.30;1.20;;;5.30;73.90;;;;;;4881876;29;20458;-80
2022/04/05 03:12:55;;;;;;;1.03;1.03;;;5.20;73.70;;;;;;4881403;29;20451;-79
2022/04/05 03:15:22;;;;;;;1.00;1.00;;;5.30;74.60;;;;;;4883520;29;20454;-80
2022/04/05 03:17:50;;;;;;;0.90;0.90;;;5.20;74.60;;;;;;4882476;29;20455;-80
2022/04/05 03:20:17;;;;;;;1.00;1.00;;;5.30;74.00;;;;;;4880708;29;20970;-77
2022/04/05 03:22:44;;;;;;;1.07;1.07;;;5.40;74.10;;;;;;4880666;29;20539;-78
2022/04/05 03:25:11;;;;;;;0.80;0.80;;;5.40;73.90;;;;;;4880683;29;20454;-77
2022/04/05 03:27:40;;;;;;;0.90;0.90;;;5.50;73.80;;;;;;4880724;29;20458;-77
2022/04/05 03:30:08;;;;;;;0.80;0.80;;;5.50;73.30;;;;;;4880972;29;20561;-78
2022/04/05 03:32:35;;;;;;;1.00;0.90;;;5.30;73.80;;;;;;4880457;29;20474;-78
2022/04/05 03:35:04;;;;;;;1.00;1.00;;;5.30;73.60;;;;;;4880960;29;20831;-78
2022/04/05 03:37:31;;;;;;;0.80;0.80;;;5.40;74.00;;;;;;4880912;29;20876;-78
2022/04/05 03:39:58;;;;;;;0.83;0.83;;;5.40;73.30;;;;;;4880247;29;20955;-77
2022/04/05 03:42:24;;;;;;;0.80;0.80;;;5.50;73.00;;;;;;4880489;29;20474;-77
2022/04/05 03:44:51;;;;;;;0.90;0.90;;;5.50;73.00;;;;;;4880479;29;20462;-78
2022/04/05 03:47:18;;;;;;;1.00;1.00;;;5.60;72.20;;;;;;4880294;29;20958;-78
2022/04/05 03:49:46;;;;;;;1.10;1.00;;;5.50;72.40;;;;;;4880515;29;20876;-78
2022/04/05 03:52:14;;;;;;;1.00;0.83;;;5.50;72.10;;;;;;4880616;29;20474;-78
2022/04/05 03:54:41;;;;;;;1.17;1.00;;;5.60;72.70;;;;;;4880294;29;20868;-75
2022/04/05 03:57:07;;;;;;;0.90;0.90;;;5.60;72.30;;;;;;4880243;29;20882;-78
2022/04/05 03:59:34;;;;;;;0.80;0.80;;;5.60;72.40;;;;;;4881006;29;20896;-78
2022/04/05 04:02:01;;;;;;;0.90;0.90;;;5.70;72.20;;;;;;4880273;29;20994;-78
2022/04/05 04:04:28;;;;;;;1.00;1.00;;;5.60;71.90;;;;;;4881009;29;20464;-78
2022/04/05 04:06:55;;;;;;;1.53;0.90;;;5.50;72.30;;;;;;4880104;29;20486;-78
2022/04/05 04:09:23;;;;;;;0.93;0.93;;;5.60;72.40;;;;;;4881227;29;20487;-81
2022/04/05 04:11:50;;;;;;;1.00;1.00;;;5.60;72.20;;;;;;4882843;29;20474;-81
2022/04/05 04:14:17;;;;;;;0.80;0.80;;;5.60;72.20;;;;;;4883377;29;20518;-81
2022/04/05 04:16:44;;;;;;;1.17;1.17;;;5.70;71.80;;;;;;4883844;29;20510;-80
2022/04/05 04:19:10;;;;;;;0.80;0.80;;;5.70;71.60;;;;;;4882611;29;21021;-81
2022/04/05 04:21:37;;;;;;;1.00;1.00;;;5.60;71.90;;;;;;4883075;29;20531;-81
2022/04/05 04:24:04;;;;;;;0.90;0.90;;;5.70;71.60;;;;;;4883477;29;20839;-81
2022/04/05 04:26:32;;;;;;;0.90;0.90;;;5.70;71.80;;;;;;4883798;29;20514;-81
2022/04/05 04:29:02;;;;;;;0.80;0.80;;;5.80;72.70;;;;;;4883604;29;20451;-81
2022/04/05 04:31:29;;;;;;;1.23;1.03;;;5.80;73.00;;;;;;4883069;29;20513;-82
2022/04/05 04:33:55;;;;;;;1.00;1.00;;;5.80;74.80;;;;;;4882965;29;20454;-82
2022/04/05 04:36:22;;;;;;;0.80;0.80;;;5.80;75.30;;;;;;4884441;29;20446;-81
2022/04/05 04:38:49;;;;;;;1.00;1.00;;;5.70;75.50;;;;;;4881723;29;20494;-79
2022/04/05 04:41:16;;;;;;;1.00;0.90;;;5.60;75.80;;;;;;4880662;29;20478;-79
2022/04/05 04:43:44;;;;;;;1.10;1.10;;;5.60;76.20;;;;;;4881066;29;20484;-81
2022/04/05 04:46:11;;;;;;;0.90;0.90;;;5.50;76.30;;;;;;4883825;29;20458;-78
2022/04/05 04:48:37;;;;;;;1.07;1.07;;;5.40;76.80;;;;;;4883315;29;20522;-81
2022/04/05 04:51:04;;;;;;;1.10;1.00;;;5.30;78.40;;;;;;4883059;29;20470;-81
2022/04/05 04:53:31;;;;;;;1.07;1.07;;;5.10;77.70;;;;;;4882911;29;20454;-82
2022/04/05 04:55:57;;;;;;;0.90;0.90;;;5.20;79.50;;;;;;4883634;29;20451;-79
2022/04/05 04:58:24;;;;;;;0.97;0.97;;;5.20;78.60;;;;;;4883600;29;20462;-81
2022/04/05 05:00:52;;;;;;;1.10;1.00;;;5.20;78.90;;;;;;4883388;29;20503;-81
2022/04/05 05:03:19;;;;;;;0.90;0.90;;;5.10;78.50;;;;;;4883659;29;20938;-81
2022/04/05 05:05:46;;;;;;;1.13;0.97;;;5.00;79.10;;;;;;4883711;29;20451;-81
2022/04/05 05:08:12;;;;;;;1.00;1.00;;;5.00;79.40;;;;;;4884233;29;20451;-81
2022/04/05 05:10:39;;;;;;;1.00;1.00;;;5.20;79.90;;;;;;4884066;29;20506;-80
2022/04/05 05:13:06;;;;;;;0.90;0.90;;;5.20;78.50;;;;;;4883630;29;20951;-81
2022/04/05 05:15:33;;;;;;;0.93;0.93;;;5.20;78.90;;;;;;4884015;29;20442;-82
2022/04/05 05:18:01;;;;;;;0.80;0.80;;;5.30;78.60;;;;;;4884133;29;20446;-81
2022/04/05 05:20:27;;;;;;;0.90;0.90;;;5.10;78.00;;;;;;4883189;29;20490;-81
2022/04/05 05:22:54;;;;;;;1.00;0.90;;;5.20;78.20;;;;;;4884261;29;20458;-81
2022/04/05 05:25:21;;;;;;;0.83;0.83;;;5.20;78.40;;;;;;4885854;29;20450;-78
2022/04/05 05:27:47;;;;;;;1.07;1.07;;;5.20;78.10;;;;;;4897203;29;20503;-79
2022/04/05 05:30:14;;;;;;;0.80;0.80;;;5.30;78.90;;;;;;4899520;29;20475;-78
2022/04/05 05:32:44;;;;;;;0.90;0.90;;;5.30;77.10;;;;;;4906243;29;20458;-79
2022/04/05 05:35:15;;;;;;;1.17;1.07;;;5.40;78.10;;;;;;4901161;29;20507;-80
2022/04/05 05:37:41;;;;;;;0.80;0.80;;;5.30;77.10;;;;;;4889865;29;20442;-82
2022/04/05 05:40:09;;;;;;;0.90;0.90;;;5.30;77.70;;;;;;4887440;29;20872;-82
2022/04/05 05:42:46;;;;;;;1.10;1.10;;;5.30;78.20;;;;;;4887398;29;20482;-79
2022/04/05 05:45:13;;;;;;;1.00;1.00;;;5.40;78.30;;;;;;4886394;29;20459;-79
2022/04/05 05:47:39;;;;;;;0.90;0.90;;;5.50;78.30;;;;;;4888305;29;20454;-79
2022/04/05 05:50:08;;;;;;;1.10;1.10;;;5.60;78.60;;;;;;4885497;29;20450;-79
2022/04/05 05:52:37;;;;;;;0.90;0.90;;;5.60;77.70;;;;;;4885359;29;20554;-78
2022/04/05 05:55:04;;;;;;;0.70;0.70;;;5.60;78.30;;;;;;4884503;29;20545;-79
2022/04/05 05:57:31;;;;;;;1.00;1.00;;;5.50;78.30;;;;;;4884098;29;20541;-79
2022/04/05 05:59:57;;;;;;;0.93;0.93;;;5.50;79.10;;;;;;4884229;29;20862;-79
2022/04/05 06:02:24;;;;;;;0.90;0.90;;;5.50;79.60;;;;;;4884378;29;20551;-79
2022/04/05 06:04:50;;;;;;;1.00;1.00;;;5.50;79.20;;;;;;4884091;29;20490;-78
2022/04/05 06:07:17;;;;;;;1.00;1.00;;;5.50;79.30;;;;;;4883917;29;20509;-79
2022/04/05 06:09:45;;;;;;;0.90;0.90;;;5.40;80.00;;;;;;4883576;29;20506;-79
2022/04/05 06:12:12;;;;;;;0.80;0.80;;;5.50;79.80;;;;;;4883382;29;20487;-79
2022/04/05 06:14:38;;;;;;;0.90;0.90;;;5.50;79.20;;;;;;4883540;29;20586;-79
2022/04/05 06:17:05;;;;;;;1.00;1.00;;;5.50;79.70;;;;;;4884147;29;20950;-79
2022/04/05 06:19:32;;;;;;;0.83;0.83;;;5.30;79.70;;;;;;4883588;29;20498;-78
2022/04/05 06:21:58;;;;;;;0.90;0.90;;;5.30;80.50;;;;;;4883920;29;20486;-80
2022/04/05 06:24:25;;;;;;;1.00;1.00;;;5.40;80.60;;;;;;4883679;29;20483;-81
2022/04/05 06:26:53;;;;;;;0.80;0.80;;;5.30;80.50;;;;;;4884122;29;20455;-81
2022/04/05 06:29:20;;;;;;;0.90;0.90;;;5.20;80.60;;;;;;4884451;29;20459;-81
2022/04/05 06:31:46;;;;;;;0.90;0.90;;;5.20;81.50;;;;;;4885922;29;20478;-81
2022/04/05 06:34:13;;;;;;;1.00;1.00;;;5.30;80.90;;;;;;4884955;29;20507;-82
2022/04/05 06:36:40;;;;;;;0.97;0.97;;;5.30;81.50;;;;;;4885467;29;20454;-82
2022/04/05 06:39:07;;;;;;;1.03;1.03;;;5.20;81.10;;;;;;4885156;29;20550;-81
2022/04/05 06:41:34;;;;;;;0.87;0.87;;;5.30;81.80;;;;;;4885293;29;20482;-81
2022/04/05 06:44:02;;;;;;;0.90;0.90;;;5.30;80.60;;;;;;4885074;29;20466;-82
2022/04/05 06:46:29;;;;;;;0.90;0.90;;;5.30;80.80;;;;;;4886262;29;20458;-81
2022/04/05 06:48:55;;;;;;;0.80;0.80;;;5.30;80.50;;;;;;4886871;29;21006;-82
2022/04/05 06:51:22;;;;;;;1.00;1.00;;;5.40;80.20;;;;;;4889548;29;20969;-81
2022/04/05 06:53:48;;;;;;;1.07;1.07;;;5.50;80.40;;;;;;4883718;29;20959;-82
2022/04/05 06:56:15;;;;;;;1.00;1.00;;;5.50;79.70;;;;;;4885520;29;20507;-82
2022/04/05 06:58:42;;;;;;;0.80;0.80;;;5.60;79.10;;;;;;4883364;29;20938;-79
2022/04/05 07:01:10;;;;;;;0.87;0.87;;;5.60;79.00;;;;;;4888687;29;20495;-82
2022/04/05 07:03:37;;;;;;;0.80;0.80;;;5.60;79.70;;;;;;4890800;29;20443;-82
2022/04/05 07:06:03;;;;;;;0.90;0.90;;;5.60;80.00;;;;;;4895780;29;20943;-81
2022/04/05 07:08:31;;;;;;;0.90;0.90;;;5.70;79.70;;;;;;4896240;29;20462;-81
2022/04/05 07:10:58;;;;;;;0.80;0.80;;;5.80;80.00;;;;;;4895358;29;20473;-81
2022/04/05 07:13:24;;;;;;;0.87;0.87;;;6.00;78.90;;;;;;4894600;29;20458;-81
2022/04/05 07:15:51;;;;;;;0.90;0.90;;;6.00;78.50;;;;;;4892968;29;20464;-80
2022/04/05 07:18:20;;;;;;;0.80;0.80;;;6.00;78.60;;;;;;4892192;29;20840;-82
2022/04/05 07:20:47;;;;;;;1.03;0.90;;;5.90;78.00;;;;;;4889606;29;20513;-82
2022/04/05 07:23:15;;;;;;;0.90;0.90;;;5.90;78.10;;;;;;4886814;29;20486;-79
2022/04/05 07:25:42;;;;;;;1.10;1.00;;;5.90;79.00;;;;;;4888710;29;20466;-82
2022/04/05 07:28:09;;;;;;;0.90;0.90;;;5.90;78.50;;;;;;4886761;29;20451;-79
2022/04/05 07:30:36;;;;;;;0.90;0.90;;;6.10;78.20;;;;;;4886627;29;20965;-79
2022/04/05 07:33:02;;;;;;;0.90;0.80;;;6.10;77.50;;;;;;4885838;29;20457;-79
2022/04/05 07:35:30;;;;;;;1.00;1.00;;;6.30;77.90;;;;;;4886625;29;20458;-81
2022/04/05 07:37:57;;;;;;;0.80;0.80;;;6.30;77.10;;;;;;4888594;29;20462;-80
2022/04/05 07:40:27;;;;;;;1.00;1.00;;;6.30;77.60;;;;;;4889031;29;20849;-80
2022/04/05 07:42:54;;;;;;;1.30;1.20;;;6.40;76.90;;;;;;4889893;29;20454;-82
2022/04/05 07:45:20;;;;;;;0.90;0.90;;;6.50;77.00;;;;;;4890215;29;20595;-81
2022/04/05 07:47:47;;;;;;;0.83;0.83;;;6.60;76.40;;;;;;4889063;29;20443;-82
2022/04/05 07:50:14;;;;;;;0.87;0.87;;;6.70;76.20;;;;;;4887937;29;20477;-81
2022/04/05 07:52:44;;;;;;;0.80;0.80;;;6.80;76.00;;;;;;4887813;29;20479;-82
2022/04/05 07:55:11;;;;;;;0.87;0.87;;;6.80;77.10;;;;;;4889268;29;20466;-80
2022/04/05 07:57:40;;;;;;;1.00;1.00;;;6.80;76.20;;;;;;4888456;29;20458;-81
2022/04/05 08:00:08;;;;;;;0.77;0.77;;;6.80;76.10;;;;;;4888376;29;20498;-81
2022/04/05 08:02:35;;;;;;;0.80;0.80;;;6.80;76.30;;;;;;4888944;29;20565;-79
2022/04/05 08:05:02;;;;;;;0.80;0.80;;;6.70;76.40;;;;;;4889509;29;20484;-81
2022/04/05 08:07:29;;;;;;;1.00;1.00;;;6.80;76.90;;;;;;4887931;29;20462;-82
2022/04/05 08:09:58;;;;;;;0.90;0.90;;;6.90;77.00;;;;;;4887097;29;20982;-82
2022/04/05 08:12:24;;;;;;;1.10;0.90;;;7.10;77.60;;;;;;4887405;29;20483;-82
2022/04/05 08:14:51;;;;;;;0.80;0.80;;;7.20;76.40;;;;;;4887332;29;20462;-82
2022/04/05 08:17:18;;;;;;;1.00;1.00;;;7.40;75.80;;;;;;4887385;29;20485;-82
2022/04/05 08:19:44;;;;;;;0.90;0.90;;;7.40;76.80;;;;;;4886582;29;20522;-82
2022/04/05 08:22:11;;;;;;;0.80;0.80;;;7.50;76.50;;;;;;4886929;29;20489;-80
2022/04/05 08:24:38;;;;;;;0.80;0.80;;;7.50;74.70;;;;;;4887329;29;20450;-81
2022/04/05 08:27:07;;;;;;;0.90;0.90;;;7.50;75.50;;;;;;4885967;29;20467;-79
2022/04/05 08:29:39;;;;;;;0.80;0.80;;;7.40;75.50;;;;;;4888235;29;20514;-80
2022/04/05 08:32:06;;;;;;;0.70;0.70;;;7.40;75.70;;;;;;4887332;29;20475;-80
2022/04/05 08:34:33;;;;;;;0.80;0.80;;;7.40;75.30;;;;;;4888648;29;20507;-79
2022/04/05 08:37:00;;;;;;;0.83;0.83;;;7.50;75.30;;;;;;4886923;29;20454;-80
2022/04/05 08:39:28;;;;;;;0.90;0.90;;;7.50;75.60;;;;;;4885938;29;20461;-79
2022/04/05 08:41:56;;;;;;;0.70;0.70;;;7.40;76.20;;;;;;4885185;29;20474;-80
2022/04/05 08:44:25;;;;;;;0.80;0.80;;;7.40;76.50;;;;;;4884730;29;20497;-80
2022/04/05 08:46:52;;;;;;;0.80;0.80;;;7.50;76.40;;;;;;4883535;29;20946;-79
2022/04/05 08:49:21;;;;;;;0.90;0.90;;;7.60;77.50;;;;;;4883846;29;20458;-80
2022/04/05 08:51:47;;;;;;;0.77;0.77;;;7.70;77.10;;;;;;4885031;29;20507;-80
2022/04/05 08:54:14;;;;;;;0.70;0.70;;;7.80;76.90;;;;;;4884105;29;20515;-80
2022/04/05 08:56:41;;;;;;;0.80;0.80;;;7.90;77.10;;;;;;4884064;29;20483;-80
2022/04/05 08:59:08;;;;;;;1.07;0.87;;;8.00;76.20;;;;;;4884685;29;20473;-81
2022/04/05 09:01:36;;;;;;;0.90;0.90;;;8.10;77.60;;;;;;4883012;29;20506;-79
2022/04/05 09:04:04;;;;;;;0.70;0.70;;;8.10;76.80;;;;;;4883888;29;20483;-80
2022/04/05 09:06:32;;;;;;;0.80;0.80;;;8.00;77.80;;;;;;4887006;29;20465;-81
2022/04/05 09:09:07;;;;;;;0.80;0.80;;;8.00;78.00;;;;;;4888629;29;20474;-81
2022/04/05 09:11:34;;;;;;;0.80;0.80;;;8.10;77.30;;;;;;4891599;29;20501;-79
2022/04/05 09:14:02;;;;;;;1.00;0.90;;;8.10;77.30;;;;;;4889756;29;20457;-79
2022/04/05 09:16:31;;;;;;;0.80;0.80;;;8.20;76.20;;;;;;4997152;23;20541;-71
2022/04/05 09:19:00;;;;;;;0.70;0.70;;;8.00;76.60;;;;;;4901271;29;20453;-71
2022/04/05 09:21:27;;;;;;;0.70;0.70;;;8.00;76.50;;;;;;4901613;29;20568;-71
2022/04/05 09:24:06;;;;;;;0.80;0.80;;;8.10;75.80;;;;;;4901145;29;20453;-71
2022/04/05 09:26:43;;;;;;;1.10;1.00;;;8.20;75.80;;;;;;4917481;29;20543;-70
2022/04/05 09:29:11;;;;;;;0.90;0.90;;;8.00;75.30;;;;;;4919531;29;20988;-71
2022/04/05 09:31:44;;;;;;;0.90;0.90;;;7.90;76.10;;;;;;4919734;29;20457;-71
2022/04/05 09:34:13;;;;;;;0.80;0.80;;;8.00;76.70;;;;;;4919318;29;20523;-71
2022/04/05 09:36:42;;;;;;;0.80;0.80;;;8.10;76.30;;;;;;4919454;29;20476;-72
2022/04/05 09:39:20;;;;;;;0.90;0.90;;;8.00;75.70;;;;;;4919384;29;20512;-70
2022/04/05 09:41:48;;;;;;;1.27;0.80;;;8.10;75.50;;;;;;4919488;29;20543;-71
2022/04/05 09:44:26;;;;;;;0.70;0.70;;;8.10;76.00;;;;;;4919565;29;20463;-71
2022/04/05 09:47:03;;;;;;;0.80;0.80;;;8.30;75.70;;;;;;4919837;29;20520;-71
2022/04/05 09:49:34;;;;;;;0.83;0.83;;;8.40;75.70;;;;;;4919633;29;20492;-71
2022/04/05 09:52:01;;;;;;;0.70;0.70;;;8.60;75.70;;;;;;4919268;29;20436;-70
2022/04/05 09:54:30;;;;;;;0.80;0.80;;;8.50;74.60;;;;;;4919503;29;20457;-71
2022/04/05 09:57:03;;;;;;;0.80;0.70;;;8.60;74.70;;;;;;4919589;29;20560;-71
2022/04/05 09:59:38;;;;;;;0.70;0.67;;;8.60;74.80;;;;;;4919682;29;20452;-70
2022/04/05 10:02:14;;;;;;;0.80;0.80;;;8.60;75.20;;;;;;4919232;29;20482;-70
2022/04/05 10:05:01;;;;;;;0.80;0.80;;;8.70;75.10;;;;;;4919104;29;20819;-70
2022/04/05 10:07:29;;;;;;;0.70;0.70;;;8.80;75.20;;;;;;4919378;29;20467;-70
2022/04/05 10:09:58;;;;;;;0.73;0.73;;;8.80;76.20;;;;;;4919537;29;20485;-71
2022/04/05 10:12:25;;;;;;;0.70;0.70;;;8.90;76.40;;;;;;4919569;29;20851;-71
2022/04/05 10:14:52;;;;;;;0.93;0.93;;;9.00;76.20;;;;;;4919298;29;20847;-71
2022/04/05 10:17:21;;;;;;;0.77;0.77;;;9.10;76.70;;;;;;4918445;29;20433;-71
2022/04/05 10:19:50;;;;;;;0.70;0.70;;;9.40;77.50;;;;;;4919025;29;20484;-71
2022/04/05 10:22:19;;;;;;;0.70;0.70;;;9.50;77.30;;;;;;4919294;29;20492;-71
2022/04/05 10:24:49;;;;;;;0.80;0.80;;;9.50;77.00;;;;;;4919506;29;20531;-71
2022/04/05 10:27:17;;;;;;;0.70;0.60;;;9.40;77.70;;;;;;4919302;29;20410;-71
2022/04/05 10:29:46;;;;;;;1.03;0.93;;;9.40;76.90;;;;;;4919414;29;20487;-71
2022/04/05 10:32:22;;;;;;;1.00;1.00;;;9.30;78.10;;;;;;4919207;29;20455;-72
2022/04/05 10:34:55;;;;;;;0.80;0.80;;;9.30;77.80;;;;;;4919020;29;20472;-70
2022/04/05 10:37:33;;;;;;;0.90;0.90;;;9.30;79.00;;;;;;4919045;29;20448;-71
2022/04/05 10:40:15;;;;;;;0.90;0.90;;;9.40;78.70;;;;;;4918774;29;20437;-71
2022/04/05 10:42:43;;;;;;;0.90;0.80;;;9.60;79.30;;;;;;4919007;29;20991;-71
2022/04/05 10:45:12;;;;;;;0.80;0.80;;;9.60;79.90;;;;;;4918617;29;20472;-71
2022/04/05 10:47:57;;;;;;;0.70;0.70;;;9.50;79.40;;;;;;4918180;29;20504;-71
2022/04/05 10:50:25;;;;;;;0.80;0.73;;;9.50;80.70;;;;;;4919739;29;21039;-71
2022/04/05 10:53:14;;;;;;;0.70;0.70;;;9.70;81.20;;;;;;4918363;29;20448;-71
2022/04/05 10:56:11;;;;;;;0.80;0.80;;;10.00;81.40;;;;;;4918457;29;20508;-72
2022/04/05 10:58:40;;;;;;;0.70;0.70;;;10.20;80.50;;;;;;4918433;29;20445;-71
2022/04/05 11:01:13;;;;;;;0.80;0.80;;;10.40;79.20;;;;;;4918590;29;20497;-73
2022/04/05 11:03:40;;;;;;;0.80;0.80;;;10.40;77.60;;;;;;4921163;29;20453;-70
2022/04/05 11:06:07;;;;;;;0.70;0.60;;;10.40;78.10;;;;;;4920530;29;20477;-71
2022/04/05 11:08:37;;;;;;;0.70;0.70;;;10.40;78.40;;;;;;4920518;29;20475;-74
2022/04/05 11:11:08;;;;;;;0.60;0.60;;;10.60;79.20;;;;;;4920491;29;20460;-73
2022/04/05 11:13:46;;;;;;;0.70;0.70;;;10.60;78.20;;;;;;4920993;29;20476;-72
2022/04/05 11:16:14;;;;;;;0.70;0.70;;;10.30;77.90;;;;;;4920303;29;20567;-74
2022/04/05 11:18:44;;;;;;;0.70;0.60;;;10.20;79.10;;;;;;4920685;29;20488;-72
2022/04/05 11:21:11;;;;;;;0.70;0.60;;;10.10;79.40;;;;;;4920119;29;20492;-72
2022/04/05 11:23:51;;;;;;;0.80;0.80;;;10.00;79.60;;;;;;4919963;29;20488;-72
2022/04/05 11:26:27;;;;;;;0.70;0.70;;;10.10;80.90;;;;;;4920119;29;20475;-71
2022/04/05 11:28:54;;;;;;;0.70;0.70;;;10.20;80.90;;;;;;4920766;29;20459;-73
2022/04/05 11:31:35;;;;;;;0.70;0.70;;;10.30;80.80;;;;;;4919905;29;20477;-72
2022/04/05 11:34:05;;;;;;;0.63;0.60;;;10.50;80.80;;;;;;4920010;29;20455;-73
2022/04/05 11:36:42;;;;;;;0.70;0.70;;;10.30;77.50;;;;;;4921909;29;20469;-71
2022/04/05 11:39:14;;;;;;;0.80;0.77;;;10.30;79.20;;;;;;4921437;29;20815;-72
2022/04/05 11:41:41;;;;;;;0.70;0.70;;;10.30;81.20;;;;;;4921187;29;20481;-72
2022/04/05 11:44:08;;;;;;;0.67;0.60;;;10.50;79.40;;;;;;4921262;29;20514;-72
2022/04/05 11:46:37;;;;;;;0.77;0.77;;;10.30;78.40;;;;;;4921241;29;20492;-71
2022/04/05 11:49:07;;;;;;;0.70;0.70;;;10.30;77.30;;;;;;4921410;29;20468;-72
2022/04/05 11:51:35;;;;;;;0.70;0.70;;;10.10;76.90;;;;;;4920352;29;20543;-73
2022/04/05 11:54:08;;;;;;;0.70;0.70;;;10.10;77.40;;;;;;4920077;29;20456;-74
2022/04/05 11:56:37;;;;;;;0.70;0.70;;;10.10;77.40;;;;;;4919666;29;20480;-72
2022/04/05 11:59:05;;;;;;;0.83;0.83;;;10.10;76.80;;;;;;4919554;29;20464;-72
2022/04/05 12:01:35;;;;;;;0.80;0.80;;;10.10;77.00;;;;;;4919715;29;20519;-72
2022/04/05 12:04:05;;;;;;;0.80;0.70;;;10.20;77.00;;;;;;4919624;29;20504;-72
2022/04/05 12:06:34;;;;;;;0.80;0.80;;;10.40;76.90;;;;;;4919236;29;20480;-73
2022/04/05 12:09:04;;;;;;;0.80;0.80;;;10.40;75.00;;;;;;4919538;29;20884;-73
2022/04/05 12:11:32;;;;;;;0.70;0.70;;;10.60;76.20;;;;;;4919748;29;20460;-72
2022/04/05 12:14:04;;;;;;;0.90;0.90;;;10.50;74.90;;;;;;4919907;29;20456;-74
2022/04/05 12:16:45;;;;;;;0.80;0.80;;;10.30;76.40;;;;;;4918922;29;20496;-72
2022/04/05 12:19:11;;;;;;;0.80;0.80;;;10.50;76.80;;;;;;4919285;29;20441;-73
2022/04/05 12:21:38;;;;;;;0.63;0.60;;;10.60;76.70;;;;;;4919265;29;20870;-72
2022/04/05 12:24:05;;;;;;;0.90;0.70;;;10.60;75.30;;;;;;4919442;29;20566;-72
2022/04/05 12:26:33;;;;;;;0.87;0.80;;;10.90;75.90;;;;;;4919243;29;20477;-72
2022/04/05 12:29:01;;;;;;;0.80;0.73;;;11.00;74.80;;;;;;4916827;29;20769;-72
2022/04/05 12:31:29;;;;;;;0.70;0.70;;;10.60;74.50;;;;;;4917048;29;20460;-72
2022/04/05 12:33:59;;;;;;;0.70;0.70;;;10.60;76.30;;;;;;4917096;29;20498;-72
2022/04/05 12:36:32;;;;;;;0.70;0.70;;;10.90;75.70;;;;;;4916832;29;20547;-72
2022/04/05 12:38:59;;;;;;;0.70;0.70;;;11.30;73.70;;;;;;4917016;29;20527;-71
2022/04/05 12:41:25;;;;;;;0.70;0.70;;;11.30;73.10;;;;;;4916063;29;20492;-73
2022/04/05 12:44:11;;;;;;;0.80;0.80;;;11.50;75.20;;;;;;4916580;29;20894;-73
2022/04/05 12:46:44;;;;;;;0.70;0.70;;;11.90;72.60;;;;;;4916729;29;20464;-73
2022/04/05 12:49:30;;;;;;;0.80;0.80;;;12.10;70.50;;;;;;4917550;29;20459;-72
2022/04/05 12:52:08;;;;;;;0.70;0.70;;;12.10;69.40;;;;;;4916329;29;20980;-73
2022/04/05 12:54:36;;;;;;;0.70;0.70;;;12.20;70.00;;;;;;4916646;29;20516;-73
2022/04/05 12:57:14;;;;;;;0.80;0.80;;;12.60;73.00;;;;;;4916360;29;20455;-73
2022/04/05 12:59:43;;;;;;;0.70;0.70;;;12.70;69.20;;;;;;4916277;29;20460;-73
2022/04/05 13:02:17;;;;;;;0.80;0.80;;;12.60;69.30;;;;;;4916210;29;20898;-72
2022/04/05 13:04:43;;;;;;;0.70;0.70;;;12.30;68.60;;;;;;4916550;29;20548;-72
2022/04/05 13:07:10;;;;;;;0.70;0.60;;;12.30;70.30;;;;;;4916437;29;20544;-73
2022/04/05 13:09:38;;;;;;;0.70;0.70;;;12.30;69.50;;;;;;4916487;29;20452;-72
2022/04/05 13:12:09;;;;;;;0.70;0.70;;;12.00;69.60;;;;;;4916486;29;20451;-72
2022/04/05 13:14:35;;;;;;;0.70;0.70;;;11.70;71.90;;;;;;4916661;29;20468;-71
2022/04/05 13:17:05;;;;;;;0.70;0.70;;;11.70;71.30;;;;;;4916288;29;20555;-72
2022/04/05 13:19:32;;;;;;;0.80;0.80;;;11.50;71.90;;;;;;4916530;29;20532;-71
2022/04/05 13:22:00;;;;;;;0.70;0.70;;;11.50;71.60;;;;;;4916392;29;20488;-72
2022/04/05 13:24:39;;;;;;;0.90;0.77;;;11.20;72.50;;;;;;4916302;29;20543;-71
2022/04/05 13:27:06;;;;;;;0.70;0.70;;;11.00;73.20;;;;;;4916476;29;20437;-72
2022/04/05 13:29:34;;;;;;;0.70;0.70;;;11.10;74.30;;;;;;4916414;29;20503;-72
2022/04/05 13:32:02;;;;;;;0.90;0.90;;;11.20;73.80;;;;;;4916210;29;20453;-71
2022/04/05 13:34:32;;;;;;;0.70;0.60;;;11.20;73.10;;;;;;4915781;29;20549;-73
2022/04/05 13:36:58;;;;;;;0.70;0.70;;;11.00;73.40;;;;;;4916364;29;20516;-72
2022/04/05 13:39:31;;;;;;;0.67;0.67;;;10.90;74.20;;;;;;4916178;29;20449;-71
2022/04/05 13:41:58;;;;;;;0.70;0.60;;;10.90;74.50;;;;;;4916209;29;20472;-72
2022/04/05 13:44:25;;;;;;;0.80;0.80;;;10.90;75.00;;;;;;4916284;29;20460;-72
2022/04/05 13:46:52;;;;;;;0.67;0.60;;;10.90;75.60;;;;;;4916090;29;20532;-72
2022/04/05 13:49:19;;;;;;;0.77;0.77;;;11.10;75.80;;;;;;4916665;29;20485;-71
2022/04/05 13:51:49;;;;;;;1.00;0.70;;;11.20;74.50;;;;;;4916162;29;20456;-73
2022/04/05 13:54:16;;;;;;;2.40;0.70;;;11.10;74.40;;;;;;4919857;29;20460;-72
2022/04/05 13:56:44;;;;;;;0.70;0.70;;;11.00;75.00;;;;;;4919443;29;20472;-72
2022/04/05 13:59:11;;;;;;;0.70;0.60;;;11.00;74.60;;;;;;4919544;29;20448;-72
2022/04/05 14:01:39;;;;;;;0.70;0.70;;;11.00;75.50;;;;;;4919152;29;20487;-71
2022/04/05 14:04:06;;;;;;;0.67;0.60;;;11.10;75.50;;;;;;4919011;29;20889;-73
2022/04/05 14:06:33;;;;;;;0.63;0.60;;;11.20;74.90;;;;;;4918965;29;20992;-72
2022/04/05 14:09:02;;;;;;;0.70;0.63;;;11.00;74.90;;;;;;4919224;29;20944;-72
2022/04/05 14:11:29;;;;;;;0.70;0.70;;;11.00;75.00;;;;;;4919520;29;20445;-72
2022/04/05 14:13:57;;;;;;;0.63;0.60;;;10.90;75.30;;;;;;4918995;29;20960;-72
2022/04/05 14:16:24;;;;;;;0.70;0.70;;;11.00;76.30;;;;;;4919141;29;20908;-72
2022/04/05 14:18:51;;;;;;;0.70;0.67;;;11.10;76.00;;;;;;4919196;29;20448;-73
2022/04/05 14:21:18;;;;;;;0.70;0.70;;;11.00;75.00;;;;;;4918826;29;20840;-72
2022/04/05 14:23:44;;;;;;;0.70;0.60;;;11.10;76.00;;;;;;4918817;29;20832;-72
2022/04/05 14:26:12;;;;;;;0.70;0.70;;;11.30;75.50;;;;;;4918669;29;20547;-72
2022/04/05 14:28:40;;;;;;;0.67;0.63;;;11.30;74.10;;;;;;4918589;29;20560;-72
2022/04/05 14:31:09;;;;;;;0.70;0.70;;;11.40;74.70;;;;;;4919317;29;20543;-72
2022/04/05 14:33:35;;;;;;;0.70;0.70;;;11.50;74.40;;;;;;4919044;29;20456;-72
2022/04/05 14:36:02;;;;;;;0.70;0.70;;;11.30;74.00;;;;;;4918647;29;20477;-72
2022/04/05 14:38:30;;;;;;;0.80;0.80;;;11.10;74.30;;;;;;4918835;29;20883;-72
2022/04/05 14:40:56;;;;;;;0.80;0.63;;;11.00;75.40;;;;;;4918908;29;20554;-72
2022/04/05 14:43:24;;;;;;;0.70;0.60;;;10.80;75.30;;;;;;4918320;29;20976;-71
2022/04/05 14:45:51;;;;;;;0.90;0.70;;;10.60;76.10;;;;;;4918508;29;20544;-72
2022/04/05 14:48:18;;;;;;;0.70;0.60;;;10.60;76.30;;;;;;4918609;29;20452;-72
2022/04/05 14:50:45;;;;;;;0.70;0.60;;;10.50;76.40;;;;;;4918706;29;20489;-73
2022/04/05 14:53:13;;;;;;;0.70;0.70;;;10.60;77.60;;;;;;4918358;29;20480;-74
2022/04/05 14:55:39;;;;;;;0.70;0.70;;;10.70;77.00;;;;;;4918287;29;20472;-72
2022/04/05 14:58:06;;;;;;;0.70;0.70;;;10.80;76.40;;;;;;4919088;29;20453;-73
2022/04/05 15:00:34;;;;;;;0.70;0.70;;;10.70;76.10;;;;;;4918269;29;20500;-71
2022/04/05 15:03:01;;;;;;;0.70;0.70;;;10.70;76.20;;;;;;4917977;29;20536;-72
2022/04/05 15:05:27;;;;;;;0.80;0.70;;;10.60;76.60;;;;;;4917532;29;20532;-72
2022/04/05 15:07:54;;;;;;;0.70;0.70;;;10.70;76.90;;;;;;4918477;29;20461;-72
2022/04/05 15:10:21;;;;;;;0.67;0.67;;;10.80;76.30;;;;;;4919461;29;20504;-71
2022/04/05 15:12:47;;;;;;;1.10;0.70;;;10.70;76.60;;;;;;4923445;29;20448;-72
2022/04/05 15:17:45;;;;;;;0.70;0.60;;;10.70;76.90;;;;;;4862258;29;20256;-80
2022/04/05 15:20:12;;;;;;;0.70;0.60;;;10.80;76.80;;;;;;4863482;29;20479;-79
2022/04/05 15:22:38;;;;;;;0.70;0.70;;;10.80;76.10;;;;;;4864243;29;20547;-79
2022/04/05 15:25:10;;;;;;;0.70;0.60;;;10.90;76.20;;;;;;4864634;29;20463;-80
2022/04/05 15:27:37;;;;;;;0.80;0.70;;;11.00;75.70;;;;;;4884587;29;20443;-80
2022/04/05 15:30:04;;;;;;;0.70;0.70;;;11.10;75.90;;;;;;4882746;29;20459;-79
2022/04/05 15:32:31;;;;;;;0.70;0.60;;;11.10;75.60;;;;;;4881399;29;20943;-79
2022/04/05 15:34:59;;;;;;;0.70;0.67;;;11.20;75.60;;;;;;4882128;29;20951;-79
2022/04/05 15:37:26;;;;;;;0.70;0.60;;;11.00;75.00;;;;;;4881906;29;20549;-80
2022/04/05 15:39:52;;;;;;;0.63;0.57;;;10.90;75.70;;;;;;4881131;29;20458;-81
2022/04/05 15:42:20;;;;;;;0.70;0.70;;;10.90;76.20;;;;;;4881139;29;20482;-80
2022/04/05 15:44:47;;;;;;;0.70;0.70;;;10.90;76.50;;;;;;4881555;29;20458;-81
2022/04/05 15:47:14;;;;;;;0.70;0.60;;;10.90;76.30;;;;;;4882119;29;20486;-82
2022/04/05 15:49:42;;;;;;;0.70;0.67;;;10.90;76.40;;;;;;4880838;29;20537;-80
2022/04/05 15:52:10;;;;;;;1.07;0.83;;;10.90;76.80;;;;;;4880848;29;20958;-79
2022/04/05 15:54:37;;;;;;;0.67;0.67;;;10.90;77.40;;;;;;4880473;29;20458;-80
2022/04/05 15:57:04;;;;;;;0.70;0.70;;;10.80;78.00;;;;;;4881376;29;20470;-80
2022/04/05 15:59:32;;;;;;;0.70;0.60;;;10.90;78.00;;;;;;4881667;29;20458;-79
2022/04/05 16:01:59;;;;;;;0.90;0.80;;;11.10;77.20;;;;;;4880300;29;20550;-79